createdAt,value
2023-04-16T00:00:09.313Z,16.97
2023-04-16T00:02:37.343Z,16.70
2023-04-16T00:05:05.776Z,16.75
2023-04-16T00:07:34.946Z,17.42
2023-04-16T00:10:02.740Z,18.05
2023-04-16T00:12:30.532Z,17.23
2023-04-16T00:14:58.322Z,16.73
2023-04-16T00:17:26.463Z,17.00
2023-04-16T00:19:54.235Z,17.45
2023-04-16T00:22:21.912Z,17.73
2023-04-16T00:24:52.146Z,18.30
2023-04-16T00:27:20.156Z,19.33
2023-04-16T00:29:47.973Z,19.20
2023-04-16T00:32:16.112Z,18.67
2023-04-16T00:34:43.840Z,17.73
2023-04-16T00:37:11.609Z,18.80
2023-04-16T00:39:39.466Z,19.93
2023-04-16T00:42:08.764Z,18.70
2023-04-16T00:44:37.094Z,19.37
2023-04-16T00:47:07.576Z,19.38
2023-04-16T00:49:36.952Z,18.83
2023-04-16T00:52:04.886Z,19.73
2023-04-16T00:54:33.117Z,19.13
2023-04-16T00:57:01.591Z,20.90
2023-04-16T00:59:30.760Z,19.67
2023-04-16T01:01:58.584Z,20.10
2023-04-16T01:04:26.639Z,19.30
2023-04-16T01:06:54.781Z,20.13
2023-04-16T01:09:22.447Z,20.37
2023-04-16T01:11:50.208Z,20.83
2023-04-16T01:14:17.884Z,21.37
2023-04-16T01:16:47.098Z,19.87
2023-04-16T01:19:14.785Z,19.77
2023-04-16T01:21:43.972Z,21.03
2023-04-16T01:24:11.777Z,20.97
2023-04-16T01:26:39.488Z,20.40
2023-04-16T01:29:07.566Z,19.37
2023-04-16T01:31:35.699Z,20.77
2023-04-16T01:34:03.476Z,22.70
2023-04-16T01:36:31.284Z,21.13
2023-04-16T01:39:00.712Z,22.17
2023-04-16T01:41:28.503Z,20.60
2023-04-16T01:43:56.317Z,22.30
2023-04-16T01:46:29.221Z,21.80
2023-04-16T01:48:57.575Z,21.47
2023-04-16T01:51:25.355Z,22.83
2023-04-16T01:53:53.111Z,20.73
2023-04-16T01:56:22.320Z,23.03
2023-04-16T01:58:50.054Z,21.40
2023-04-16T02:01:17.965Z,21.13
2023-04-16T02:03:46.095Z,21.73
2023-04-16T02:06:14.767Z,22.17
2023-04-16T02:08:43.295Z,20.37
2023-04-16T02:11:11.297Z,23.50
2023-04-16T02:13:40.489Z,22.87
2023-04-16T02:16:09.001Z,21.13
2023-04-16T02:18:36.881Z,20.77
2023-04-16T02:21:06.419Z,21.83
2023-04-16T02:23:34.254Z,20.30
2023-04-16T02:26:02.136Z,21.20
2023-04-16T02:28:30.018Z,20.60
2023-04-16T02:30:59.752Z,20.90
2023-04-16T02:33:28.677Z,19.90
2023-04-16T02:35:56.483Z,20.87
2023-04-16T02:38:24.220Z,20.67
2023-04-16T02:40:52.175Z,19.43
2023-04-16T02:43:20.404Z,20.77
2023-04-16T02:45:48.282Z,20.43
2023-04-16T02:48:17.917Z,20.90
2023-04-16T02:50:45.584Z,20.77
2023-04-16T02:53:13.327Z,20.43
2023-04-16T02:55:41.070Z,22.30
2023-04-16T02:58:08.828Z,21.03
2023-04-16T03:00:36.526Z,20.60
2023-04-16T03:03:04.787Z,19.63
2023-04-16T03:05:33.966Z,21.07
2023-04-16T03:08:01.766Z,20.40
2023-04-16T03:10:29.516Z,20.80
2023-04-16T03:12:57.276Z,20.77
2023-04-16T03:15:25.320Z,20.87
2023-04-16T03:17:53.095Z,21.20
2023-04-16T03:20:21.134Z,21.40
2023-04-16T03:22:52.406Z,21.63
2023-04-16T03:25:20.520Z,22.07
2023-04-16T03:27:48.343Z,20.57
2023-04-16T03:30:16.714Z,21.40
2023-04-16T03:32:44.454Z,21.80
2023-04-16T03:35:12.793Z,22.67
2023-04-16T03:37:40.502Z,21.53
2023-04-16T03:40:10.412Z,21.37
2023-04-16T03:42:38.258Z,20.63
2023-04-16T03:45:06.788Z,22.27
2023-04-16T03:47:34.707Z,21.60
2023-04-16T03:50:02.603Z,20.00
2023-04-16T03:52:30.487Z,21.67
2023-04-16T03:54:58.129Z,22.33
2023-04-16T03:57:27.308Z,22.70
2023-04-16T03:59:55.038Z,22.17
2023-04-16T04:02:23.067Z,21.37
2023-04-16T04:04:51.014Z,23.73
2023-04-16T04:07:18.913Z,22.63
2023-04-16T04:09:46.731Z,21.90
2023-04-16T04:12:14.522Z,22.63
2023-04-16T04:14:43.710Z,21.73
2023-04-16T04:17:11.461Z,23.27
2023-04-16T04:19:44.486Z,21.53
2023-04-16T04:22:18.635Z,21.00
2023-04-16T04:24:46.467Z,21.37
2023-04-16T04:27:14.286Z,21.37
2023-04-16T04:29:43.550Z,21.67
2023-04-16T04:32:11.340Z,21.10
2023-04-16T04:34:39.094Z,22.23
2023-04-16T04:37:06.878Z,22.30
2023-04-16T04:39:34.686Z,23.33
2023-04-16T04:42:03.365Z,21.47
2023-04-16T04:44:31.205Z,23.03
2023-04-16T04:47:00.381Z,21.83
2023-04-16T04:49:28.280Z,21.87
2023-04-16T04:51:56.032Z,21.50
2023-04-16T04:54:23.734Z,23.07
2023-04-16T04:56:52.541Z,20.83
2023-04-16T04:59:21.520Z,21.67
2023-04-16T05:01:49.441Z,21.20
2023-04-16T05:04:18.904Z,21.50
2023-04-16T05:06:46.751Z,20.57
2023-04-16T05:09:14.548Z,21.67
2023-04-16T05:11:43.185Z,20.43
2023-04-16T05:14:11.007Z,21.80
2023-04-16T05:16:39.105Z,19.77
2023-04-16T05:19:07.159Z,20.87
2023-04-16T05:21:36.736Z,20.53
2023-04-16T05:24:04.683Z,21.20
2023-04-16T05:26:32.492Z,21.03
2023-04-16T05:29:00.380Z,20.73
2023-04-16T05:31:28.095Z,21.60
2023-04-16T05:33:55.860Z,22.57
2023-04-16T05:36:24.008Z,21.20
2023-04-16T05:38:53.197Z,19.83
2023-04-16T05:41:21.145Z,21.03
2023-04-16T05:43:48.852Z,21.07
2023-04-16T05:46:16.613Z,21.25
2023-04-16T05:48:44.393Z,20.40
2023-04-16T05:51:12.191Z,21.10
2023-04-16T05:53:39.870Z,20.75
2023-04-16T05:56:09.562Z,20.80
2023-04-16T05:58:37.298Z,19.23
2023-04-16T06:01:05.291Z,20.70
2023-04-16T06:03:33.404Z,20.43
2023-04-16T06:06:01.360Z,21.07
2023-04-16T06:08:29.304Z,19.93
2023-04-16T06:10:57.559Z,20.27
2023-04-16T06:13:26.672Z,19.87
2023-04-16T06:15:54.500Z,19.97
2023-04-16T06:18:22.182Z,20.20
2023-04-16T06:20:49.856Z,19.80
2023-04-16T06:23:17.569Z,20.17
2023-04-16T06:25:45.237Z,21.83
2023-04-16T06:28:13.122Z,19.23
2023-04-16T06:30:44.061Z,19.40
2023-04-16T06:33:12.450Z,18.33
2023-04-16T06:35:40.167Z,18.20
2023-04-16T06:38:07.896Z,19.30
2023-04-16T06:40:37.027Z,19.40
2023-04-16T06:43:05.070Z,19.27
2023-04-16T06:45:32.857Z,18.03
2023-04-16T06:48:03.390Z,18.77
2023-04-16T06:50:31.451Z,19.23
2023-04-16T06:52:59.414Z,17.63
2023-04-16T06:55:27.205Z,17.87
2023-04-16T06:57:54.836Z,18.23
2023-04-16T07:00:22.705Z,17.55
2023-04-16T07:02:50.892Z,18.40
2023-04-16T07:05:20.440Z,17.67
2023-04-16T07:07:48.326Z,17.17
2023-04-16T07:10:16.269Z,16.93
2023-04-16T07:12:44.039Z,17.37
2023-04-16T07:15:12.483Z,17.37
2023-04-16T07:17:40.246Z,17.33
2023-04-16T07:20:09.677Z,16.77
2023-04-16T07:22:38.787Z,16.87
2023-04-16T07:25:07.053Z,16.90
2023-04-16T07:27:34.751Z,17.48
2023-04-16T07:30:02.479Z,16.50
2023-04-16T07:32:30.523Z,17.15
2023-04-16T07:34:58.337Z,16.93
2023-04-16T07:37:26.096Z,16.60
2023-04-16T07:39:57.573Z,16.53
2023-04-16T07:42:25.493Z,16.70
2023-04-16T07:44:53.324Z,16.88
2023-04-16T07:47:21.216Z,16.17
2023-04-16T07:49:49.063Z,16.27
2023-04-16T07:52:16.846Z,16.37
2023-04-16T07:54:44.686Z,16.03
2023-04-16T07:57:14.049Z,15.90
2023-04-16T07:59:41.810Z,16.63
2023-04-16T08:02:13.992Z,15.80
2023-04-16T08:04:44.635Z,15.80
2023-04-16T08:07:12.805Z,16.30
2023-04-16T08:09:49.580Z,16.60
2023-04-16T08:12:18.938Z,15.77
2023-04-16T08:14:47.293Z,16.70
2023-04-16T08:17:15.820Z,15.35
2023-04-16T08:19:44.760Z,15.67
2023-04-16T08:22:15.173Z,15.18
2023-04-16T08:24:43.152Z,14.23
2023-04-16T08:27:18.327Z,15.47
2023-04-16T08:29:48.943Z,14.23
2023-04-16T08:32:16.730Z,14.80
2023-04-16T08:34:46.701Z,15.03
2023-04-16T08:37:14.411Z,14.60
2023-04-16T08:39:42.081Z,16.00
2023-04-16T08:42:16.289Z,14.67
2023-04-16T08:44:49.417Z,13.73
2023-04-16T08:47:24.070Z,14.13
2023-04-16T08:49:56.808Z,14.45
2023-04-16T08:52:30.660Z,14.60
2023-04-16T08:55:05.657Z,13.50
2023-04-16T08:57:39.907Z,12.93
2023-04-16T09:00:10.857Z,13.50
2023-04-16T09:02:40.392Z,11.82
2023-04-16T09:05:09.381Z,13.33
2023-04-16T09:07:37.839Z,12.00
2023-04-16T09:10:09.521Z,10.50
2023-04-16T09:12:37.344Z,11.38
2023-04-16T09:15:07.021Z,10.98
2023-04-16T09:17:35.648Z,12.10
2023-04-16T09:20:05.996Z,10.88
2023-04-16T09:22:33.790Z,11.68
2023-04-16T09:25:01.602Z,11.82
2023-04-16T09:27:30.275Z,11.65
2023-04-16T09:29:58.040Z,11.63
2023-04-16T09:32:27.625Z,11.75
2023-04-16T09:34:57.618Z,11.30
2023-04-16T09:37:29.475Z,11.20
2023-04-16T09:39:59.176Z,12.10
2023-04-16T09:42:29.519Z,11.55
2023-04-16T09:45:00.276Z,11.57
2023-04-16T09:47:41.215Z,11.45
2023-04-16T09:50:12.463Z,11.20
2023-04-16T09:52:45.227Z,11.90
2023-04-16T09:55:13.000Z,11.43
2023-04-16T09:57:40.767Z,10.88
2023-04-16T10:00:10.273Z,11.43
2023-04-16T10:02:42.023Z,11.02
2023-04-16T10:05:10.776Z,11.05
2023-04-16T10:07:38.882Z,11.05
2023-04-16T10:10:09.406Z,11.38
2023-04-16T10:12:37.131Z,11.15
2023-04-16T10:15:05.637Z,10.77
2023-04-16T10:17:34.348Z,11.60
2023-04-16T10:20:04.032Z,11.20
2023-04-16T10:22:32.245Z,10.35
2023-04-16T10:25:00.533Z,10.65
2023-04-16T10:27:30.556Z,10.90
2023-04-16T10:29:58.808Z,10.13
2023-04-16T10:32:28.708Z,10.13
2023-04-16T10:34:56.794Z,9.68
2023-04-16T10:37:31.160Z,10.05
2023-04-16T10:39:59.466Z,9.00
2023-04-16T10:42:27.520Z,8.93
2023-04-16T10:45:00.806Z,8.90
2023-04-16T10:47:30.522Z,8.93
2023-04-16T10:49:59.344Z,9.43
2023-04-16T10:52:30.625Z,8.95
2023-04-16T10:55:00.642Z,10.07
2023-04-16T10:57:30.304Z,9.10
2023-04-16T10:59:59.960Z,9.95
2023-04-16T11:02:31.010Z,9.75
2023-04-16T11:04:59.011Z,10.00
2023-04-16T11:07:34.760Z,10.15
2023-04-16T11:10:05.397Z,10.50
2023-04-16T11:12:37.554Z,11.27
2023-04-16T11:15:09.352Z,11.32
2023-04-16T11:17:40.085Z,11.25
2023-04-16T11:20:19.542Z,11.32
2023-04-16T11:22:48.792Z,11.35
2023-04-16T11:25:20.776Z,11.70
2023-04-16T11:27:48.547Z,11.38
2023-04-16T11:30:18.798Z,10.20
2023-04-16T11:32:46.985Z,11.35
2023-04-16T11:35:16.152Z,9.23
2023-04-16T11:37:44.757Z,9.65
2023-04-16T11:40:13.777Z,9.00
2023-04-16T11:42:43.449Z,9.38
2023-04-16T11:45:12.843Z,10.18
2023-04-16T11:47:46.658Z,9.63
2023-04-16T11:50:22.005Z,9.50
2023-04-16T11:52:50.822Z,8.80
2023-04-16T11:55:18.902Z,8.48
2023-04-16T11:57:46.818Z,7.65
2023-04-16T12:00:16.058Z,8.07
2023-04-16T12:02:46.664Z,7.40
2023-04-16T12:05:32.027Z,7.00
2023-04-16T12:08:02.713Z,6.03
2023-04-16T12:10:31.643Z,7.28
2023-04-16T12:13:11.788Z,6.38
2023-04-16T12:15:47.809Z,6.22
2023-04-16T12:18:17.374Z,6.13
2023-04-16T12:20:46.790Z,5.80
2023-04-16T12:23:24.530Z,5.40
2023-04-16T12:25:52.344Z,5.55
2023-04-16T12:28:29.968Z,5.57
2023-04-16T12:30:57.814Z,5.90
2023-04-16T12:33:27.170Z,5.43
2023-04-16T12:35:55.106Z,6.05
2023-04-16T12:38:24.751Z,5.82
2023-04-16T12:40:52.785Z,4.68
2023-04-16T12:43:25.111Z,6.25
2023-04-16T12:45:53.253Z,7.25
2023-04-16T12:48:21.263Z,5.85
2023-04-16T12:50:50.564Z,5.63
2023-04-16T12:53:19.896Z,6.43
2023-04-16T12:55:47.720Z,6.00
2023-04-16T12:58:15.494Z,6.57
2023-04-16T13:00:47.394Z,6.00
2023-04-16T13:03:16.141Z,5.93
2023-04-16T13:05:44.098Z,6.50
2023-04-16T13:08:13.363Z,5.90
2023-04-16T13:10:41.145Z,5.90
2023-04-16T13:13:08.945Z,6.22
2023-04-16T13:15:36.878Z,5.93
2023-04-16T13:18:05.043Z,6.28
2023-04-16T13:20:34.350Z,5.80
2023-04-16T13:23:04.845Z,6.88
2023-04-16T13:25:34.088Z,6.00
2023-04-16T13:28:01.927Z,5.85
2023-04-16T13:30:30.132Z,5.82
2023-04-16T13:32:58.049Z,5.75
2023-04-16T13:35:28.343Z,5.78
2023-04-16T13:37:56.220Z,5.80
2023-04-16T13:40:24.095Z,9.05
2023-04-16T13:42:53.346Z,6.45
2023-04-16T13:45:22.374Z,6.97
2023-04-16T13:47:50.206Z,7.45
2023-04-16T13:50:18.148Z,6.65
2023-04-16T13:52:45.958Z,6.90
2023-04-16T13:55:17.523Z,6.65
2023-04-16T13:57:45.314Z,6.57
2023-04-16T14:00:16.725Z,6.05
2023-04-16T14:02:45.971Z,7.20
2023-04-16T14:05:13.926Z,6.32
2023-04-16T14:07:41.879Z,6.13
2023-04-16T14:10:10.831Z,6.43
2023-04-16T14:12:39.442Z,6.35
2023-04-16T14:15:09.625Z,5.70
2023-04-16T14:17:38.966Z,6.22
2023-04-16T14:20:07.604Z,5.50
2023-04-16T14:22:35.721Z,5.88
2023-04-16T14:25:03.771Z,5.30
2023-04-16T14:27:31.773Z,5.68
2023-04-16T14:29:59.580Z,5.53
2023-04-16T14:32:27.605Z,5.50
2023-04-16T14:34:59.383Z,5.10
2023-04-16T14:37:27.658Z,5.10
2023-04-16T14:39:55.525Z,6.05
2023-04-16T14:42:23.501Z,5.32
2023-04-16T14:44:52.127Z,5.05
2023-04-16T14:47:19.996Z,5.57
2023-04-16T14:49:47.748Z,5.25
2023-04-16T14:52:17.364Z,4.85
2023-04-16T14:54:45.076Z,4.20
2023-04-16T14:57:12.924Z,4.30
2023-04-16T14:59:40.987Z,4.32
2023-04-16T15:02:10.501Z,3.80
2023-04-16T15:04:38.237Z,3.65
2023-04-16T15:07:05.985Z,3.25
2023-04-16T15:09:35.594Z,2.90
2023-04-16T15:12:03.344Z,3.47
2023-04-16T15:14:31.031Z,3.42
2023-04-16T15:16:58.982Z,2.78
2023-04-16T15:19:26.957Z,2.70
2023-04-16T15:21:55.875Z,2.45
2023-04-16T15:24:23.704Z,2.70
2023-04-16T15:26:52.863Z,2.53
2023-04-16T15:29:20.884Z,2.47
2023-04-16T15:31:48.915Z,2.08
2023-04-16T15:34:17.281Z,2.20
2023-04-16T15:36:45.052Z,2.65
2023-04-16T15:39:13.116Z,2.53
2023-04-16T15:41:57.546Z,2.22
2023-04-16T15:44:29.801Z,2.63
2023-04-16T15:46:57.538Z,2.65
2023-04-16T15:49:25.432Z,1.88
2023-04-16T15:51:53.465Z,2.15
2023-04-16T15:54:21.436Z,2.00
2023-04-16T15:56:49.232Z,2.00
2023-04-16T15:59:17.672Z,1.92
2023-04-16T16:01:47.210Z,2.03
2023-04-16T16:04:15.301Z,1.70
2023-04-16T16:06:43.295Z,1.98
2023-04-16T16:09:12.021Z,1.77
2023-04-16T16:11:39.958Z,1.98
2023-04-16T16:14:07.783Z,2.00
2023-04-16T16:16:36.290Z,2.25
2023-04-16T16:19:05.676Z,1.90
2023-04-16T16:21:33.625Z,2.25
2023-04-16T16:24:01.888Z,1.80
2023-04-16T16:26:29.962Z,2.00
2023-04-16T16:28:58.092Z,2.35
2023-04-16T16:31:26.070Z,2.20
2023-04-16T16:33:53.932Z,2.17
2023-04-16T16:36:23.104Z,2.17
2023-04-16T16:38:51.223Z,2.50
2023-04-16T16:41:19.006Z,2.30
2023-04-16T16:43:46.831Z,2.85
2023-04-16T16:46:14.670Z,2.75
2023-04-16T16:48:42.569Z,2.60
2023-04-16T16:51:11.510Z,2.30
2023-04-16T16:53:40.776Z,2.63
2023-04-16T16:56:08.594Z,3.20
2023-04-16T16:58:36.336Z,2.60
2023-04-16T17:01:04.297Z,3.33
2023-04-16T17:03:32.132Z,3.42
2023-04-16T17:06:00.214Z,3.58
2023-04-16T17:08:28.974Z,4.10
2023-04-16T17:10:58.328Z,4.55
2023-04-16T17:13:26.245Z,4.03
2023-04-16T17:15:54.001Z,4.20
2023-04-16T17:18:21.778Z,4.53
2023-04-16T17:20:49.591Z,4.28
2023-04-16T17:23:17.449Z,4.05
2023-04-16T17:25:45.218Z,4.85
2023-04-16T17:28:14.337Z,4.13
2023-04-16T17:30:42.220Z,4.65
2023-04-16T17:33:10.101Z,4.28
2023-04-16T17:35:37.958Z,3.92
2023-04-16T17:38:05.660Z,4.05
2023-04-16T17:40:33.380Z,4.40
2023-04-16T17:43:01.242Z,4.93
2023-04-16T17:45:30.756Z,4.45
2023-04-16T17:47:58.477Z,4.28
2023-04-16T17:50:27.812Z,4.18
2023-04-16T17:52:55.539Z,3.67
2023-04-16T17:55:23.289Z,3.80
2023-04-16T17:57:51.050Z,3.55
2023-04-16T18:00:20.042Z,3.65
2023-04-16T18:02:49.339Z,3.83
2023-04-16T18:05:17.157Z,2.95
2023-04-16T18:07:46.992Z,3.63
2023-04-16T18:10:15.104Z,3.58
2023-04-16T18:12:43.033Z,3.50
2023-04-16T18:15:11.854Z,3.10
2023-04-16T18:17:39.596Z,3.67
2023-04-16T18:20:11.726Z,3.78
2023-04-16T18:22:39.608Z,3.20
2023-04-16T18:25:09.322Z,3.08
2023-04-16T18:27:37.050Z,3.20
2023-04-16T18:30:05.855Z,3.20
2023-04-16T18:32:33.851Z,3.30
2023-04-16T18:35:01.926Z,3.50
2023-04-16T18:37:31.206Z,3.97
2023-04-16T18:39:58.949Z,3.83
2023-04-16T18:42:28.108Z,3.60
2023-04-16T18:44:56.106Z,3.80
2023-04-16T18:47:24.721Z,3.85
2023-04-16T18:49:52.583Z,4.00
2023-04-16T18:52:22.610Z,3.93
2023-04-16T18:54:51.858Z,3.70
2023-04-16T18:57:19.522Z,3.57
2023-04-16T18:59:47.621Z,3.63
2023-04-16T19:02:15.462Z,4.07
2023-04-16T19:04:43.244Z,3.83
2023-04-16T19:07:11.013Z,4.20
2023-04-16T19:09:38.761Z,4.03
2023-04-16T19:12:08.377Z,4.47
2023-04-16T19:14:36.142Z,4.93
2023-04-16T19:17:04.143Z,5.07
2023-04-16T19:19:31.883Z,4.43
2023-04-16T19:21:59.705Z,4.60
2023-04-16T19:24:27.489Z,4.80
2023-04-16T19:26:55.914Z,5.10
2023-04-16T19:29:24.972Z,5.30
2023-04-16T19:31:52.843Z,4.50
2023-04-16T19:34:20.732Z,5.07
2023-04-16T19:36:48.455Z,4.90
2023-04-16T19:39:16.406Z,5.10
2023-04-16T19:41:44.411Z,5.13
2023-04-16T19:44:12.172Z,5.27
2023-04-16T19:46:41.344Z,5.20
2023-04-16T19:49:09.462Z,5.80
2023-04-16T19:51:37.654Z,5.50
2023-04-16T19:54:05.758Z,6.07
2023-04-16T19:56:33.523Z,6.37
2023-04-16T19:59:02.456Z,6.13
2023-04-16T20:01:31.238Z,5.77
2023-04-16T20:04:00.484Z,6.10
2023-04-16T20:06:28.427Z,5.70
2023-04-16T20:08:57.652Z,5.80
2023-04-16T20:11:26.007Z,5.93
2023-04-16T20:13:54.335Z,6.03
2023-04-16T20:16:24.062Z,5.43
2023-04-16T20:18:54.331Z,5.53
2023-04-16T20:21:23.508Z,6.03
2023-04-16T20:23:51.222Z,5.57
2023-04-16T20:26:19.304Z,5.33
2023-04-16T20:28:47.391Z,5.47
2023-04-16T20:31:15.192Z,5.90
2023-04-16T20:33:42.930Z,5.05
2023-04-16T20:36:10.677Z,5.30
2023-04-16T20:38:39.754Z,5.63
2023-04-16T20:41:10.385Z,5.30
2023-04-16T20:43:40.922Z,5.03
2023-04-16T20:46:08.896Z,5.37
2023-04-16T20:48:36.680Z,5.40
2023-04-16T20:51:05.686Z,5.47
2023-04-16T20:53:34.072Z,5.47
2023-04-16T20:56:03.502Z,5.40
2023-04-16T20:58:31.560Z,5.40
2023-04-16T21:00:59.323Z,5.90
2023-04-16T21:03:27.286Z,5.87
2023-04-16T21:05:56.362Z,6.00
2023-04-16T21:08:25.064Z,5.73
2023-04-16T21:10:52.766Z,5.57
2023-04-16T21:13:21.991Z,5.53
2023-04-16T21:15:49.834Z,6.20
2023-04-16T21:18:18.537Z,5.40
2023-04-16T21:20:46.425Z,6.17
2023-04-16T21:23:14.334Z,6.10
2023-04-16T21:25:42.172Z,6.20
2023-04-16T21:28:09.980Z,6.20
2023-04-16T21:30:39.507Z,6.73
2023-04-16T21:33:07.875Z,6.07
2023-04-16T21:35:35.744Z,6.50
2023-04-16T21:38:03.588Z,6.17
2023-04-16T21:40:31.362Z,6.60
2023-04-16T21:42:59.100Z,6.00
2023-04-16T21:45:27.411Z,6.40
2023-04-16T21:47:57.590Z,6.50
2023-04-16T21:50:25.343Z,6.53
2023-04-16T21:52:54.796Z,6.10
2023-04-16T21:55:22.543Z,6.53
2023-04-16T21:57:50.252Z,6.90
2023-04-16T22:00:18.598Z,7.33
2023-04-16T22:02:46.533Z,6.23
2023-04-16T22:05:15.979Z,6.43
2023-04-16T22:07:43.789Z,6.37
2023-04-16T22:10:14.397Z,6.63
2023-04-16T22:12:44.651Z,7.40
2023-04-16T22:15:13.297Z,6.83
2023-04-16T22:17:41.743Z,7.23
2023-04-16T22:20:12.702Z,6.50
2023-04-16T22:22:42.408Z,6.73
2023-04-16T22:25:10.668Z,7.30
2023-04-16T22:27:38.772Z,7.23
2023-04-16T22:30:08.365Z,6.90
2023-04-16T22:32:36.360Z,7.57
2023-04-16T22:35:04.367Z,7.13
2023-04-16T22:37:33.461Z,8.23
2023-04-16T22:40:02.640Z,7.83
2023-04-16T22:42:30.493Z,9.00
2023-04-16T22:44:58.485Z,8.60
2023-04-16T22:47:26.271Z,8.33
2023-04-16T22:49:54.252Z,8.60
2023-04-16T22:52:21.981Z,8.43
2023-04-16T22:54:49.666Z,8.60
2023-04-16T22:57:22.727Z,8.23
2023-04-16T22:59:50.688Z,8.70
2023-04-16T23:02:18.575Z,9.80
2023-04-16T23:04:47.714Z,9.53
2023-04-16T23:07:16.342Z,9.40
2023-04-16T23:09:44.093Z,8.97
2023-04-16T23:12:11.890Z,8.70
2023-04-16T23:14:45.973Z,9.33
2023-04-16T23:17:14.666Z,9.57
2023-04-16T23:19:42.483Z,10.17
2023-04-16T23:22:10.428Z,9.87
2023-04-16T23:24:38.125Z,10.23
2023-04-16T23:27:05.841Z,9.77
2023-04-16T23:29:33.553Z,9.60
2023-04-16T23:32:02.688Z,9.37
2023-04-16T23:34:30.530Z,10.80
2023-04-16T23:36:58.294Z,9.93
2023-04-16T23:39:26.182Z,9.97
2023-04-16T23:41:53.889Z,9.63
2023-04-16T23:44:21.641Z,9.20
2023-04-16T23:46:49.482Z,9.13
2023-04-16T23:49:18.608Z,10.53
2023-04-16T23:51:46.320Z,10.30
2023-04-16T23:54:14.781Z,10.70
2023-04-16T23:56:42.530Z,9.83
2023-04-16T23:59:11.170Z,10.70
